Terminal Aerodrome Forecast
Issued by NWS Charleston, WV

Current Version | Previous Version | Graphics & Text | Print | Product List | Glossary On
Versions: 1 2 3 4 5 6 7 8 9 10 11 12 13 14 15 16 17 18 19 20 21 22 23 24 25 26 27 28 29 30
000
FTUS41 KRLX 250800 AAA
TAFCRW
TAF AMD
KCRW 250816Z 2508/2606 13004KT P6SM FEW045
     FM250900 12003KT 6SM BR SKC
      TEMPO 2510/2512 4SM BR SCT001
     FM251300 11003KT P6SM SKC
     FM251700 12005KT P6SM FEW040
     FM252100 VRB03KT P6SM SKC=

USA.gov is the U.S. government's official web portal to all federal, state and local government web resources and services.